createdAt,value
2018-09-30T00:02:18.059Z,10.50
2018-09-30T00:04:47.505Z,10.60
2018-09-30T00:07:16.815Z,10.60
2018-09-30T00:09:46.824Z,10.60
2018-09-30T00:12:16.448Z,10.60
2018-09-30T00:14:46.872Z,10.60
2018-09-30T00:17:16.547Z,10.60
2018-09-30T00:19:49.500Z,10.60
2018-09-30T00:22:19.207Z,10.60
2018-09-30T00:24:54.277Z,10.60
2018-09-30T00:27:24.456Z,10.60
2018-09-30T00:29:55.575Z,10.70
2018-09-30T00:32:25.075Z,10.70
2018-09-30T00:34:54.886Z,10.70
2018-09-30T00:37:25.576Z,10.60
2018-09-30T00:39:55.362Z,10.50
2018-09-30T00:42:24.274Z,10.40
2018-09-30T00:44:53.882Z,10.30
2018-09-30T00:47:23.124Z,10.20
2018-09-30T00:49:53.697Z,10.20
2018-09-30T00:52:23.037Z,10.10
2018-09-30T00:54:52.211Z,10.10
2018-09-30T00:57:21.590Z,10.10
2018-09-30T00:59:51.251Z,10.00
2018-09-30T01:02:20.658Z,10.00
2018-09-30T01:04:51.829Z,9.90
2018-09-30T01:07:21.658Z,9.80
2018-09-30T01:09:51.167Z,9.80
2018-09-30T01:12:20.657Z,9.90
2018-09-30T01:14:49.914Z,9.90
2018-09-30T01:17:19.082Z,9.90
2018-09-30T01:19:48.188Z,9.90
2018-09-30T01:22:17.487Z,9.90
2018-09-30T01:24:53.312Z,10.00
2018-09-30T01:27:22.076Z,9.90
2018-09-30T01:29:51.350Z,9.80
2018-09-30T01:32:21.191Z,9.70
2018-09-30T01:35:04.078Z,9.70
2018-09-30T01:37:33.064Z,9.60
2018-09-30T01:40:02.634Z,9.60
2018-09-30T01:42:31.575Z,9.60
2018-09-30T01:45:01.079Z,9.60
2018-09-30T01:47:30.023Z,9.60
2018-09-30T01:49:59.620Z,9.60
2018-09-30T01:52:39.868Z,9.60
2018-09-30T01:55:09.264Z,9.60
2018-09-30T01:57:39.759Z,9.60
2018-09-30T02:00:09.184Z,9.60
2018-09-30T02:02:41.441Z,9.60
2018-09-30T02:05:10.495Z,9.70
2018-09-30T02:07:47.383Z,9.70
2018-09-30T02:10:17.592Z,9.70
2018-09-30T02:12:46.957Z,9.60
2018-09-30T02:15:16.453Z,9.60
2018-09-30T02:17:46.260Z,9.50
2018-09-30T02:20:15.620Z,9.50
2018-09-30T02:22:45.807Z,9.40
2018-09-30T02:25:15.284Z,9.40
2018-09-30T02:27:44.679Z,9.30
2018-09-30T02:30:13.575Z,9.20
2018-09-30T02:32:42.953Z,9.10
2018-09-30T02:35:15.670Z,9.00
2018-09-30T02:37:45.586Z,9.00
2018-09-30T02:40:14.833Z,8.90
2018-09-30T02:42:43.886Z,8.90
2018-09-30T02:45:13.154Z,8.80
2018-09-30T02:47:42.703Z,8.80
2018-09-30T02:50:11.906Z,8.80
2018-09-30T02:52:40.738Z,8.80
2018-09-30T02:55:09.999Z,8.80
2018-09-30T02:57:45.087Z,8.90
2018-09-30T03:00:18.831Z,8.90
2018-09-30T03:02:51.489Z,8.90
2018-09-30T03:05:20.887Z,8.90
2018-09-30T03:07:55.787Z,9.00
2018-09-30T03:10:25.339Z,9.00
2018-09-30T03:12:55.031Z,9.00
2018-09-30T03:15:24.484Z,9.00
2018-09-30T03:17:53.959Z,9.00
2018-09-30T03:20:22.897Z,9.00
2018-09-30T03:22:53.288Z,9.00
2018-09-30T03:25:22.598Z,9.00
2018-09-30T03:27:51.522Z,9.00
2018-09-30T03:30:20.845Z,9.00
2018-09-30T03:32:53.022Z,9.00
2018-09-30T03:35:21.985Z,9.00
2018-09-30T03:37:51.918Z,9.00
2018-09-30T03:40:21.675Z,9.00
2018-09-30T03:42:51.751Z,8.90
2018-09-30T03:45:21.059Z,8.90
2018-09-30T03:47:50.260Z,8.90
2018-09-30T03:50:24.295Z,8.90
2018-09-30T03:52:53.387Z,8.80
2018-09-30T03:55:22.752Z,8.80
2018-09-30T03:57:53.756Z,8.70
2018-09-30T04:00:23.125Z,8.70
2018-09-30T04:02:52.604Z,8.70
2018-09-30T04:05:21.960Z,8.70
2018-09-30T04:08:25.464Z,8.70
2018-09-30T04:10:54.851Z,8.60
2018-09-30T04:13:24.208Z,8.40
2018-09-30T04:15:54.143Z,8.40
2018-09-30T04:18:23.186Z,8.30
2018-09-30T04:20:52.951Z,8.30
2018-09-30T04:23:22.249Z,8.20
2018-09-30T04:25:51.805Z,8.10
2018-09-30T04:28:20.861Z,8.10
2018-09-30T04:30:49.843Z,8.10
2018-09-30T04:33:19.115Z,8.00
2018-09-30T04:35:49.123Z,8.00
2018-09-30T04:38:18.528Z,8.10
2018-09-30T04:40:47.698Z,8.10
2018-09-30T04:43:17.006Z,8.10
2018-09-30T04:45:47.249Z,8.20
2018-09-30T04:48:16.607Z,8.20
2018-09-30T04:50:46.317Z,8.20
2018-09-30T04:53:21.141Z,8.30
2018-09-30T04:56:20.014Z,8.30
2018-09-30T04:58:49.347Z,8.30
2018-09-30T05:01:18.815Z,8.30
2018-09-30T05:03:47.843Z,8.40
2018-09-30T05:06:23.086Z,8.50
2018-09-30T05:08:52.228Z,8.70
2018-09-30T05:11:21.625Z,8.80
2018-09-30T05:13:55.888Z,9.00
2018-09-30T05:16:26.198Z,9.20
2018-09-30T05:18:55.664Z,9.40
2018-09-30T05:21:24.544Z,9.50
2018-09-30T05:23:54.155Z,9.60
2018-09-30T05:26:23.286Z,9.70
2018-09-30T05:28:55.632Z,9.80
2018-09-30T05:31:25.088Z,9.90
2018-09-30T05:33:55.300Z,10.10
2018-09-30T05:36:24.628Z,10.30
2018-09-30T05:38:54.372Z,10.30
2018-09-30T05:41:23.807Z,10.30
2018-09-30T05:43:55.455Z,10.20
2018-09-30T05:46:24.997Z,10.10
2018-09-30T05:48:54.461Z,10.00
2018-09-30T05:51:23.785Z,10.00
2018-09-30T05:53:55.601Z,10.10
2018-09-30T05:56:25.023Z,10.10
2018-09-30T05:58:54.554Z,10.20
2018-09-30T06:01:24.763Z,10.30
2018-09-30T06:03:59.023Z,10.30
2018-09-30T06:06:28.561Z,10.30
2018-09-30T06:09:00.205Z,10.40
2018-09-30T06:11:29.273Z,10.40
2018-09-30T06:13:59.065Z,10.50
2018-09-30T06:16:28.309Z,10.60
2018-09-30T06:18:58.788Z,10.70
2018-09-30T06:21:27.793Z,10.70
2018-09-30T06:23:57.423Z,10.80
2018-09-30T06:26:27.180Z,10.80
2018-09-30T06:28:57.148Z,10.80
2018-09-30T06:31:27.257Z,10.90
2018-09-30T06:34:03.890Z,10.90
2018-09-30T06:36:33.196Z,10.90
2018-09-30T06:39:02.571Z,10.90
2018-09-30T06:41:32.549Z,10.90
2018-09-30T06:44:01.992Z,11.00
2018-09-30T06:46:31.611Z,11.00
2018-09-30T06:49:01.427Z,11.10
2018-09-30T06:51:31.556Z,11.10
2018-09-30T06:54:01.690Z,11.20
2018-09-30T06:56:32.591Z,11.30
2018-09-30T06:59:09.386Z,11.40
2018-09-30T07:01:39.520Z,11.50
2018-09-30T07:04:09.560Z,11.60
2018-09-30T07:06:39.599Z,11.60
2018-09-30T07:09:09.589Z,11.60
2018-09-30T07:11:38.898Z,11.60
2018-09-30T07:14:09.534Z,11.70
2018-09-30T07:16:39.615Z,11.70
2018-09-30T07:19:09.352Z,11.80
2018-09-30T07:21:39.025Z,11.80
2018-09-30T07:24:08.895Z,11.90
2018-09-30T07:26:38.521Z,11.90
2018-09-30T07:29:09.885Z,12.00
2018-09-30T07:31:40.128Z,12.00
2018-09-30T07:34:18.196Z,12.00
2018-09-30T07:36:49.028Z,12.00
2018-09-30T07:39:18.249Z,12.00
2018-09-30T07:41:55.065Z,12.00
2018-09-30T07:44:24.807Z,12.10
2018-09-30T07:46:55.451Z,12.10
2018-09-30T07:49:24.883Z,12.00
2018-09-30T07:51:54.692Z,12.00
2018-09-30T07:54:24.079Z,11.90
2018-09-30T07:56:53.568Z,11.90
2018-09-30T07:59:23.204Z,12.00
2018-09-30T08:01:54.143Z,11.90
2018-09-30T08:04:23.447Z,12.00
2018-09-30T08:06:52.984Z,12.10
2018-09-30T08:09:22.761Z,12.40
2018-09-30T08:11:52.643Z,12.80
2018-09-30T08:14:22.068Z,13.00
2018-09-30T08:16:52.283Z,13.50
2018-09-30T08:19:21.990Z,14.00
2018-09-30T08:21:51.442Z,14.30
2018-09-30T08:24:21.815Z,14.40
2018-09-30T08:26:52.125Z,14.40
2018-09-30T08:29:21.424Z,14.70
2018-09-30T08:31:51.828Z,14.80
2018-09-30T08:34:21.638Z,14.50
2018-09-30T08:36:51.314Z,14.30
2018-09-30T08:39:21.417Z,14.00
2018-09-30T08:41:51.792Z,13.70
2018-09-30T08:44:22.003Z,13.50
2018-09-30T08:46:51.791Z,13.50
2018-09-30T08:49:21.392Z,13.40
2018-09-30T08:51:51.212Z,13.40
2018-09-30T08:54:20.821Z,13.50
2018-09-30T08:56:50.161Z,13.60
2018-09-30T08:59:19.985Z,13.60
2018-09-30T09:01:52.420Z,13.60
2018-09-30T09:04:24.139Z,13.60
2018-09-30T09:06:53.731Z,13.60
2018-09-30T09:09:23.338Z,13.60
2018-09-30T09:11:52.831Z,13.70
2018-09-30T09:14:23.160Z,13.80
2018-09-30T09:16:52.757Z,13.90
2018-09-30T09:19:22.663Z,14.00
2018-09-30T09:21:52.522Z,14.10
2018-09-30T09:24:22.135Z,14.20
2018-09-30T09:26:51.734Z,14.20
2018-09-30T09:29:22.520Z,14.30
2018-09-30T09:31:53.850Z,14.40
2018-09-30T09:34:23.124Z,14.50
2018-09-30T09:36:52.653Z,14.50
2018-09-30T09:39:22.679Z,14.70
2018-09-30T09:41:52.114Z,14.80
2018-09-30T09:44:22.313Z,14.80
2018-09-30T09:46:52.307Z,14.90
2018-09-30T09:49:23.011Z,14.80
2018-09-30T09:51:52.370Z,14.80
2018-09-30T09:54:22.104Z,14.90
2018-09-30T09:56:51.707Z,15.10
2018-09-30T09:59:21.602Z,15.20
2018-09-30T10:01:51.403Z,15.40
2018-09-30T10:04:21.449Z,15.50
2018-09-30T10:06:51.478Z,15.70
2018-09-30T10:09:21.394Z,15.70
2018-09-30T10:11:51.872Z,15.80
2018-09-30T10:14:21.831Z,15.70
2018-09-30T10:16:51.642Z,15.70
2018-09-30T10:19:22.804Z,15.90
2018-09-30T10:21:53.686Z,16.10
2018-09-30T10:24:23.349Z,16.30
2018-09-30T10:26:53.667Z,16.60
2018-09-30T10:29:25.522Z,16.70
2018-09-30T10:31:55.403Z,16.70
2018-09-30T10:34:25.326Z,16.80
2018-09-30T10:36:54.923Z,16.90
2018-09-30T10:39:24.961Z,16.90
2018-09-30T10:41:55.036Z,16.70
2018-09-30T10:44:24.828Z,16.60
2018-09-30T10:46:54.948Z,16.70
2018-09-30T10:49:24.569Z,16.80
2018-09-30T10:51:55.086Z,16.90
2018-09-30T10:54:25.728Z,17.00
2018-09-30T10:56:55.308Z,16.90
2018-09-30T10:59:25.279Z,17.00
2018-09-30T11:01:54.907Z,17.20
2018-09-30T11:04:24.872Z,17.30
2018-09-30T11:06:54.208Z,17.50
2018-09-30T11:09:23.961Z,17.40
2018-09-30T11:11:53.965Z,17.30
2018-09-30T11:14:23.278Z,17.40
2018-09-30T11:16:53.631Z,17.50
2018-09-30T11:19:30.433Z,17.50
2018-09-30T11:22:06.671Z,17.70
2018-09-30T11:24:36.991Z,17.80
2018-09-30T11:27:06.657Z,18.00
2018-09-30T11:29:36.674Z,18.20
2018-09-30T11:32:07.272Z,18.40
2018-09-30T11:34:38.079Z,18.40
2018-09-30T11:37:07.305Z,18.40
2018-09-30T11:39:37.805Z,18.40
2018-09-30T11:42:07.487Z,18.50
2018-09-30T11:44:38.595Z,18.70
2018-09-30T11:47:08.714Z,18.70
2018-09-30T11:49:38.872Z,18.70
2018-09-30T11:52:08.833Z,18.80
2018-09-30T11:54:38.961Z,18.90
2018-09-30T11:57:08.582Z,19.00
2018-09-30T12:02:18.526Z,19.10
2018-09-30T12:04:52.442Z,19.40
2018-09-30T12:07:30.353Z,19.40
2018-09-30T12:10:01.020Z,19.50
2018-09-30T12:12:31.787Z,19.40
2018-09-30T12:15:01.587Z,19.50
2018-09-30T12:17:32.541Z,19.50
2018-09-30T12:20:04.826Z,19.60
2018-09-30T12:22:35.141Z,19.70
2018-09-30T12:25:07.754Z,19.70
2018-09-30T12:27:38.322Z,19.80
2018-09-30T12:30:09.782Z,19.90
2018-09-30T12:32:40.514Z,20.00
2018-09-30T12:35:11.041Z,20.10
2018-09-30T12:37:41.438Z,20.10
2018-09-30T12:40:11.531Z,20.10
2018-09-30T12:42:42.727Z,20.10
2018-09-30T12:45:14.067Z,20.20
2018-09-30T12:47:44.335Z,20.20
2018-09-30T12:50:14.664Z,20.20
2018-09-30T12:52:44.738Z,20.20
2018-09-30T12:55:15.085Z,20.20
2018-09-30T12:57:45.378Z,20.20
2018-09-30T13:00:15.792Z,20.20
2018-09-30T13:02:45.625Z,20.30
2018-09-30T13:05:15.859Z,20.30
2018-09-30T13:07:46.249Z,20.30
2018-09-30T13:10:16.529Z,20.30
2018-09-30T13:12:46.341Z,20.30
2018-09-30T13:15:16.287Z,20.30
2018-09-30T13:17:46.826Z,20.40
2018-09-30T13:20:16.680Z,20.40
2018-09-30T13:22:46.179Z,20.50
2018-09-30T13:25:16.192Z,20.50
2018-09-30T13:27:46.192Z,20.60
2018-09-30T13:30:16.727Z,20.60
2018-09-30T13:32:47.405Z,20.70
2018-09-30T13:35:17.667Z,20.80
2018-09-30T13:37:47.799Z,20.80
2018-09-30T13:40:18.474Z,20.80
2018-09-30T13:42:47.862Z,20.80
2018-09-30T13:45:18.333Z,20.90
2018-09-30T13:47:48.097Z,20.80
2018-09-30T13:50:17.888Z,20.90
2018-09-30T13:52:47.589Z,21.00
2018-09-30T13:55:16.909Z,21.00
2018-09-30T13:57:46.635Z,21.10
2018-09-30T14:00:17.123Z,21.20
2018-09-30T14:02:47.700Z,21.30
2018-09-30T14:05:17.804Z,21.30
2018-09-30T14:07:47.882Z,21.40
2018-09-30T14:10:17.711Z,21.40
2018-09-30T14:12:47.155Z,21.50
2018-09-30T14:15:16.791Z,21.50
2018-09-30T14:17:46.881Z,21.50
2018-09-30T14:20:16.547Z,21.60
2018-09-30T14:22:45.952Z,21.60
2018-09-30T14:25:16.262Z,21.50
2018-09-30T14:27:46.284Z,21.50
2018-09-30T14:30:16.130Z,21.60
2018-09-30T14:32:46.384Z,21.60
2018-09-30T14:35:16.222Z,21.50
2018-09-30T14:37:45.622Z,21.50
2018-09-30T14:40:15.682Z,21.50
2018-09-30T14:42:45.776Z,21.50
2018-09-30T14:45:23.098Z,21.50
2018-09-30T14:48:09.270Z,21.50
2018-09-30T14:50:41.593Z,21.50
2018-09-30T14:53:12.076Z,21.50
2018-09-30T14:55:44.053Z,21.50
2018-09-30T14:58:22.911Z,21.50
2018-09-30T15:00:55.144Z,21.60
2018-09-30T15:03:25.899Z,21.60
2018-09-30T15:05:56.625Z,21.70
2018-09-30T15:08:36.530Z,21.70
2018-09-30T15:11:09.849Z,21.70
2018-09-30T15:13:42.113Z,21.70
2018-09-30T15:16:14.107Z,21.70
2018-09-30T15:18:59.958Z,21.60
2018-09-30T15:21:31.610Z,21.60
2018-09-30T15:24:02.343Z,21.50
2018-09-30T15:26:33.303Z,21.50
2018-09-30T15:29:08.722Z,21.50
2018-09-30T15:31:55.355Z,21.50
2018-09-30T15:34:26.378Z,21.50
2018-09-30T15:36:56.357Z,21.50
2018-09-30T15:39:28.099Z,21.60
2018-09-30T15:42:01.364Z,21.60
2018-09-30T15:44:35.134Z,21.70
2018-09-30T15:47:06.948Z,21.80
2018-09-30T15:49:37.486Z,21.90
2018-09-30T15:52:07.807Z,22.00
2018-09-30T15:54:47.024Z,22.00
2018-09-30T15:57:30.207Z,22.00
2018-09-30T16:00:00.199Z,22.00
2018-09-30T16:02:34.344Z,22.10
2018-09-30T16:05:04.361Z,22.20
2018-09-30T16:07:39.513Z,22.30
2018-09-30T16:10:11.445Z,22.40
2018-09-30T16:12:41.482Z,22.60
2018-09-30T16:15:11.409Z,22.70
2018-09-30T16:17:40.602Z,22.70
2018-09-30T16:20:10.340Z,22.70
2018-09-30T16:22:40.612Z,22.70
2018-09-30T16:25:10.431Z,22.70
2018-09-30T16:27:40.037Z,22.70
2018-09-30T16:30:10.030Z,22.60
2018-09-30T16:32:39.969Z,22.60
2018-09-30T16:35:09.795Z,22.50
2018-09-30T16:37:39.793Z,22.50
2018-09-30T16:40:09.563Z,22.50
2018-09-30T16:42:39.045Z,22.40
2018-09-30T16:45:08.678Z,22.40
2018-09-30T16:47:39.222Z,22.40
2018-09-30T16:50:09.149Z,22.40
2018-09-30T16:52:38.846Z,22.40
2018-09-30T16:55:08.509Z,22.40
2018-09-30T16:57:38.571Z,22.30
2018-09-30T17:00:10.957Z,22.30
2018-09-30T17:02:40.430Z,22.20
2018-09-30T17:05:10.080Z,22.20
2018-09-30T17:07:42.039Z,22.20
2018-09-30T17:10:11.688Z,22.10
2018-09-30T17:12:41.268Z,22.10
2018-09-30T17:15:10.658Z,22.00
2018-09-30T17:17:40.069Z,22.00
2018-09-30T17:20:09.797Z,21.90
2018-09-30T17:22:40.287Z,21.80
2018-09-30T17:25:09.856Z,21.80
2018-09-30T17:27:38.972Z,21.70
2018-09-30T17:30:08.733Z,21.60
2018-09-30T17:32:38.828Z,21.50
2018-09-30T17:35:08.355Z,21.40
2018-09-30T17:37:38.139Z,21.30
2018-09-30T17:40:07.650Z,21.10
2018-09-30T17:42:37.857Z,21.10
2018-09-30T17:45:07.944Z,21.00
2018-09-30T17:47:37.544Z,20.90
2018-09-30T17:50:07.182Z,20.80
2018-09-30T17:52:37.459Z,20.60
2018-09-30T17:55:07.008Z,20.50
2018-09-30T17:57:35.836Z,20.40
2018-09-30T18:00:06.780Z,20.30
2018-09-30T18:02:36.543Z,20.20
2018-09-30T18:05:08.482Z,20.20
2018-09-30T18:07:38.981Z,20.10
2018-09-30T18:10:08.816Z,20.00
2018-09-30T18:12:38.600Z,20.00
2018-09-30T18:15:09.261Z,19.90
2018-09-30T18:17:39.459Z,19.90
2018-09-30T18:20:10.802Z,19.80
2018-09-30T18:22:40.705Z,19.70
2018-09-30T18:25:10.208Z,19.70
2018-09-30T18:27:40.357Z,19.70
2018-09-30T18:30:11.877Z,19.60
2018-09-30T18:32:41.833Z,19.70
2018-09-30T18:35:12.744Z,19.70
2018-09-30T18:37:43.395Z,19.60
2018-09-30T18:40:13.591Z,19.60
2018-09-30T18:42:43.644Z,19.60
2018-09-30T18:45:13.473Z,19.60
2018-09-30T18:47:43.626Z,19.50
2018-09-30T18:50:13.424Z,19.50
2018-09-30T18:52:44.412Z,19.50
2018-09-30T18:55:13.894Z,19.50
2018-09-30T18:57:43.867Z,19.50
2018-09-30T19:00:14.992Z,19.50
2018-09-30T19:02:45.905Z,19.40
2018-09-30T19:05:15.894Z,19.40
2018-09-30T19:07:45.689Z,19.50
2018-09-30T19:10:15.345Z,19.60
2018-09-30T19:12:45.386Z,19.70
2018-09-30T19:15:15.481Z,19.70
2018-09-30T19:17:45.467Z,19.80
2018-09-30T19:20:19.073Z,19.80
2018-09-30T19:22:49.670Z,19.80
2018-09-30T19:25:19.950Z,19.90
2018-09-30T19:27:49.683Z,19.90
2018-09-30T19:30:19.083Z,19.80
2018-09-30T19:32:49.764Z,19.70
2018-09-30T19:35:19.623Z,19.60
2018-09-30T19:37:48.658Z,19.60
2018-09-30T19:40:18.327Z,19.50
2018-09-30T19:42:51.965Z,19.40
2018-09-30T19:45:24.795Z,19.30
2018-09-30T19:47:54.214Z,19.30
2018-09-30T19:50:26.408Z,19.20
2018-09-30T19:52:56.167Z,19.10
2018-09-30T19:55:27.899Z,19.10
2018-09-30T19:57:58.295Z,19.10
2018-09-30T20:00:28.051Z,19.00
2018-09-30T20:02:57.713Z,18.90
2018-09-30T20:05:27.616Z,18.90
2018-09-30T20:07:58.086Z,18.80
2018-09-30T20:10:28.071Z,18.60
2018-09-30T20:12:57.734Z,18.50
2018-09-30T20:15:27.456Z,18.30
2018-09-30T20:17:56.916Z,18.30
2018-09-30T20:20:26.465Z,18.20
2018-09-30T20:22:55.864Z,18.10
2018-09-30T20:25:25.910Z,18.00
2018-09-30T20:27:55.500Z,17.90
2018-09-30T20:30:24.848Z,17.90
2018-09-30T20:32:54.371Z,17.80
2018-09-30T20:35:24.188Z,17.70
2018-09-30T20:37:53.548Z,17.60
2018-09-30T20:40:22.682Z,17.40
2018-09-30T20:42:51.773Z,17.30
2018-09-30T20:45:21.309Z,17.00
2018-09-30T20:47:51.051Z,16.90
2018-09-30T20:50:22.405Z,16.80
2018-09-30T20:52:51.891Z,16.80
2018-09-30T20:55:21.616Z,16.70
2018-09-30T20:57:51.175Z,16.70
2018-09-30T21:00:21.216Z,16.50
2018-09-30T21:02:50.943Z,16.40
2018-09-30T21:06:38.893Z,16.30
2018-09-30T21:09:10.613Z,16.20
2018-09-30T21:11:40.103Z,16.10
2018-09-30T21:14:09.400Z,16.10
2018-09-30T21:16:38.970Z,16.00
2018-09-30T21:19:08.838Z,16.00
2018-09-30T21:21:38.046Z,15.90
2018-09-30T21:24:12.732Z,15.90
2018-09-30T21:26:44.202Z,15.90
2018-09-30T21:29:14.674Z,15.90
2018-09-30T21:31:45.465Z,15.80
2018-09-30T21:34:14.787Z,15.70
2018-09-30T21:36:45.192Z,15.60
2018-09-30T21:39:15.321Z,15.50
2018-09-30T21:41:47.350Z,15.60
2018-09-30T21:44:16.834Z,15.60
2018-09-30T21:46:46.476Z,15.70
2018-09-30T21:49:15.956Z,15.80
2018-09-30T21:51:45.274Z,15.80
2018-09-30T21:54:14.829Z,15.80
2018-09-30T21:56:45.625Z,15.80
2018-09-30T21:59:15.069Z,15.80
2018-09-30T22:01:45.199Z,15.80
2018-09-30T22:04:14.732Z,15.80
2018-09-30T22:06:44.564Z,15.80
2018-09-30T22:09:13.741Z,15.80
2018-09-30T22:11:43.460Z,15.80
2018-09-30T22:14:12.925Z,15.70
2018-09-30T22:16:42.790Z,15.70
2018-09-30T22:19:11.916Z,15.80
2018-09-30T22:21:41.096Z,15.80
2018-09-30T22:24:10.433Z,15.80
2018-09-30T22:26:40.696Z,15.80
2018-09-30T22:29:09.688Z,15.80
2018-09-30T22:31:39.282Z,15.80
2018-09-30T22:34:08.854Z,15.70
2018-09-30T22:36:38.476Z,15.70
2018-09-30T22:39:08.577Z,15.70
2018-09-30T22:41:39.523Z,15.70
2018-09-30T22:44:08.918Z,15.70
2018-09-30T22:46:38.165Z,15.70
2018-09-30T22:49:07.468Z,15.70
2018-09-30T22:51:36.740Z,15.70
2018-09-30T22:54:06.145Z,15.70
2018-09-30T22:56:37.487Z,15.60
2018-09-30T22:59:06.408Z,15.60
2018-09-30T23:01:35.975Z,15.60
2018-09-30T23:04:05.256Z,15.60
2018-09-30T23:06:35.401Z,15.50
2018-09-30T23:09:06.121Z,15.30
2018-09-30T23:11:36.041Z,15.20
2018-09-30T23:14:05.177Z,15.10
2018-09-30T23:16:34.811Z,15.10
2018-09-30T23:19:03.940Z,15.00
2018-09-30T23:21:33.403Z,14.90
2018-09-30T23:24:02.971Z,14.80
2018-09-30T23:26:32.210Z,14.80
2018-09-30T23:29:01.621Z,14.90
2018-09-30T23:31:35.512Z,14.90
2018-09-30T23:34:04.589Z,14.80
2018-09-30T23:36:33.724Z,14.80
2018-09-30T23:39:02.869Z,14.80
2018-09-30T23:41:32.458Z,14.80
2018-09-30T23:44:01.537Z,14.80
2018-09-30T23:46:30.630Z,14.90
2018-09-30T23:49:00.685Z,14.90
2018-09-30T23:51:30.735Z,14.90
2018-09-30T23:53:59.686Z,14.90
2018-09-30T23:56:28.745Z,14.90
2018-09-30T23:58:57.819Z,14.90
